Time;durP1;ratioP1;P1;durP2;ratioP2;P2;SDS_P1;SDS_P2;PMS_P1;PMS_P2;Temp;Humidity;BMP_temperature;BMP_pressure;BME280_temperature;BME280_humidity;BME280_pressure;Samples;Min_cycle;Max_cycle;Signal;HPM_P1;HPM_P2
2022/03/14 00:02:18;;;;;;;8.02;3.70;;;;;;;-2.72;68.33;61724.66;5028116;28;20226;-77
2022/03/14 00:04:45;;;;;;;7.85;5.15;;;;;;;-2.73;68.25;61721.16;5044590;28;20240;-76
2022/03/14 00:07:14;;;;;;;6.93;4.85;;;;;;;-2.78;67.72;61721.00;5037831;28;20219;-76
2022/03/14 00:09:40;;;;;;;11.15;6.57;;;;;;;-2.80;67.96;61721.47;5028110;28;20203;-76
2022/03/14 00:12:08;;;;;;;11.77;6.75;;;;;;;-2.77;68.59;61716.53;5026664;28;20282;-77
2022/03/14 00:14:35;;;;;;;15.02;6.03;;;;;;;-2.78;68.06;61718.00;5031111;28;20257;-76
2022/03/14 00:17:09;;;;;;;7.95;5.53;;;;;;;-2.84;67.79;61714.38;5036148;28;20239;-77
2022/03/14 00:19:36;;;;;;;6.35;4.05;;;;;;;-2.89;68.15;61706.78;5024785;28;20214;-77
2022/03/14 00:22:04;;;;;;;3.90;3.60;;;;;;;-2.93;69.87;61700.19;5026248;28;20226;-76
2022/03/14 00:24:32;;;;;;;6.95;3.58;;;;;;;-2.90;70.56;61706.25;5039274;28;20242;-76
2022/03/14 00:26:59;;;;;;;7.60;4.00;;;;;;;-2.96;71.08;61694.63;5029357;28;20214;-77
2022/03/14 00:29:28;;;;;;;5.50;4.20;;;;;;;-2.98;70.98;61692.59;5025158;28;20248;-76
2022/03/14 00:31:54;;;;;;;9.32;6.10;;;;;;;-2.99;71.73;61691.56;5031604;28;20230;-76
2022/03/14 00:34:21;;;;;;;10.23;5.20;;;;;;;-2.99;70.98;61697.06;5046784;28;20206;-78
2022/03/14 00:36:48;;;;;;;13.07;7.60;;;;;;;-3.05;71.14;61695.91;5025821;28;20226;-76
2022/03/14 00:39:15;;;;;;;13.05;6.00;;;;;;;-3.04;71.73;61691.97;5026793;28;20234;-77
2022/03/14 00:41:43;;;;;;;13.82;7.70;;;;;;;-3.02;72.42;61694.00;5024888;28;20226;-78
2022/03/14 00:44:11;;;;;;;12.55;8.05;;;;;;;-3.04;72.64;61691.97;5024344;28;20225;-76
2022/03/14 00:46:39;;;;;;;17.52;7.65;;;;;;;-3.06;71.53;61691.88;5017655;28;20339;-75
2022/03/14 00:49:06;;;;;;;8.88;6.00;;;;;;;-3.05;70.36;61695.91;5026209;28;20269;-77
2022/03/14 00:51:34;;;;;;;10.43;6.43;;;;;;;-3.00;69.55;61695.53;5025741;28;20262;-76
2022/03/14 00:54:01;;;;;;;7.03;3.53;;;;;;;-3.03;69.47;61692.97;5024709;28;20207;-77
2022/03/14 00:56:28;;;;;;;5.85;4.28;;;;;;;-3.03;70.24;61690.50;5021839;28;20215;-77
2022/03/14 00:58:59;;;;;;;5.05;3.17;;;;;;;-3.09;71.15;61686.84;5025439;28;20313;-77
2022/03/14 01:01:26;;;;;;;10.57;5.85;;;;;;;-3.02;70.57;61693.50;5034862;28;20194;-76
2022/03/14 01:03:53;;;;;;;8.35;6.18;;;;;;;-3.11;70.39;61689.78;5022306;28;20222;-76
2022/03/14 01:06:20;;;;;;;8.85;6.05;;;;;;;-3.10;71.38;61685.31;5019643;28;20203;-77
2022/03/14 01:08:47;;;;;;;7.32;5.22;;;;;;;-3.14;71.43;61686.72;5025708;28;20237;-77
2022/03/14 01:11:13;;;;;;;9.70;6.45;;;;;;;-3.15;72.70;61680.72;5025068;28;20265;-77
2022/03/14 01:13:41;;;;;;;9.25;5.43;;;;;;;-3.16;73.36;61684.16;5024247;28;20219;-76
2022/03/14 01:16:09;;;;;;;9.75;5.85;;;;;;;-3.16;73.44;61682.19;5026100;28;20206;-76
2022/03/14 01:18:36;;;;;;;7.82;5.32;;;;;;;-3.19;73.36;61676.63;5024983;28;20234;-76
2022/03/14 01:21:03;;;;;;;11.55;6.18;;;;;;;-3.24;73.00;61668.50;5023654;28;20314;-75
2022/03/14 01:23:30;;;;;;;8.43;5.95;;;;;;;-3.21;72.87;61679.06;5023840;28;20222;-76
2022/03/14 01:25:57;;;;;;;11.43;6.22;;;;;;;-3.25;72.14;61670.00;5025521;28;20218;-77
2022/03/14 01:28:24;;;;;;;10.63;6.75;;;;;;;-3.22;71.09;61673.56;5040224;28;20268;-76
2022/03/14 01:30:50;;;;;;;11.90;6.30;;;;;;;-3.10;70.21;61680.84;5022292;28;20257;-76
2022/03/14 01:33:18;;;;;;;6.75;5.72;;;;;;;-3.17;70.30;61675.66;5025476;28;20235;-77
2022/03/14 01:35:46;;;;;;;12.35;6.85;;;;;;;-3.17;70.72;61683.66;5026405;28;20206;-76
2022/03/14 01:38:13;;;;;;;11.55;6.22;;;;;;;-3.12;70.85;61683.28;5033661;28;20258;-76
2022/03/14 01:40:40;;;;;;;8.23;5.38;;;;;;;-3.12;70.59;61680.78;5024072;28;20523;-76
2022/03/14 01:43:07;;;;;;;5.45;4.82;;;;;;;-3.20;70.86;61675.09;5025027;28;20273;-76
2022/03/14 01:45:34;;;;;;;6.32;4.68;;;;;;;-3.18;71.10;61679.63;5013888;28;20237;-76
2022/03/14 01:48:01;;;;;;;10.23;5.03;;;;;;;-3.14;70.82;61676.75;5028104;28;20270;-76
2022/03/14 01:50:29;;;;;;;7.68;5.53;;;;;;;-3.07;69.99;61690.88;5030867;28;20202;-76
2022/03/14 01:52:56;;;;;;;9.70;5.30;;;;;;;-3.16;70.50;61684.69;5029855;28;20239;-76
2022/03/14 01:55:23;;;;;;;6.90;4.72;;;;;;;-3.16;70.71;61681.69;5021726;28;20233;-77
2022/03/14 01:57:49;;;;;;;4.45;3.92;;;;;;;-3.17;70.66;61683.66;5032678;28;20221;-76
2022/03/14 02:00:16;;;;;;;5.60;4.80;;;;;;;-3.19;70.32;61671.16;5024167;28;20219;-76
2022/03/14 02:02:44;;;;;;;10.15;5.00;;;;;;;-3.28;70.83;61659.97;5025019;28;20229;-77
2022/03/14 02:05:12;;;;;;;7.78;4.55;;;;;;;-3.28;71.52;61662.47;5026848;28;20507;-77
2022/03/14 02:07:40;;;;;;;5.32;3.80;;;;;;;-3.29;72.15;61665.91;5025710;28;20222;-76
2022/03/14 02:10:08;;;;;;;4.25;3.83;;;;;;;-3.35;72.50;61664.75;5024314;28;20293;-76
2022/03/14 02:12:35;;;;;;;3.95;3.25;;;;;;;-3.34;73.05;61668.25;5026952;28;20246;-77
2022/03/14 02:15:02;;;;;;;7.35;4.15;;;;;;;-3.33;72.65;61659.84;5027998;28;20238;-76
2022/03/14 02:17:29;;;;;;;6.20;4.20;;;;;;;-3.31;71.99;61671.34;5026353;28;20284;-77
2022/03/14 02:20:01;;;;;;;4.70;3.72;;;;;;;-3.34;72.39;61658.81;5026579;28;20238;-77
2022/03/14 02:22:29;;;;;;;5.10;4.10;;;;;;;-3.41;71.67;61659.13;5026397;28;20265;-76
2022/03/14 02:24:57;;;;;;;6.75;3.80;;;;;;;-3.42;71.41;61653.16;5024053;28;20206;-77
2022/03/14 02:27:24;;;;;;;6.88;4.22;;;;;;;-3.41;71.29;61651.16;5026288;28;20222;-76
2022/03/14 02:29:51;;;;;;;5.35;4.28;;;;;;;-3.39;72.58;61653.19;5028176;28;20237;-77
2022/03/14 02:32:18;;;;;;;4.80;3.85;;;;;;;-3.43;73.03;61649.63;5042673;28;20218;-77
2022/03/14 02:34:45;;;;;;;5.95;4.05;;;;;;;-3.43;72.10;61649.63;5039228;28;20211;-76
2022/03/14 02:37:13;;;;;;;4.82;3.80;;;;;;;-3.38;72.42;61659.22;5024312;28;20585;-76
2022/03/14 02:39:40;;;;;;;8.35;3.65;;;;;;;-3.40;72.78;61654.69;5041157;28;20252;-76
2022/03/14 02:42:08;;;;;;;5.32;4.25;;;;;;;-3.46;73.32;61651.03;5043738;28;20249;-77
2022/03/14 02:44:37;;;;;;;6.18;3.92;;;;;;;-3.49;73.84;61638.53;5028900;28;20492;-76
2022/03/14 02:47:05;;;;;;;5.57;3.88;;;;;;;-3.55;73.69;61642.34;5022789;28;20250;-76
2022/03/14 02:49:33;;;;;;;9.93;4.93;;;;;;;-3.57;74.45;61640.31;5024743;28;20199;-77
2022/03/14 02:52:00;;;;;;;6.90;3.97;;;;;;;-3.53;73.95;61639.41;5040897;28;20218;-78
2022/03/14 02:54:28;;;;;;;8.20;4.90;;;;;;;-3.46;73.23;61651.53;5024790;28;20202;-76
2022/03/14 02:56:57;;;;;;;7.43;5.32;;;;;;;-3.53;73.23;61647.41;5032736;28;20403;-76
2022/03/14 02:59:26;;;;;;;5.05;3.97;;;;;;;-3.49;73.59;61646.00;5028982;28;20269;-76
2022/03/14 03:01:53;;;;;;;7.07;4.88;;;;;;;-3.48;73.06;61641.53;5032888;28;20455;-77
2022/03/14 03:04:19;;;;;;;7.07;4.45;;;;;;;-3.49;73.16;61646.00;5028951;28;20203;-77
2022/03/14 03:06:47;;;;;;;7.60;4.90;;;;;;;-3.52;73.68;61637.97;5014487;28;20254;-77
2022/03/14 03:09:13;;;;;;;10.07;6.55;;;;;;;-3.45;72.57;61657.03;5016153;28;20203;-77
2022/03/14 03:11:42;;;;;;;7.88;4.45;;;;;;;-3.46;72.79;61648.53;5031950;28;20264;-77
2022/03/14 03:14:09;;;;;;;6.30;4.97;;;;;;;-3.49;73.30;61648.47;5022602;28;20206;-77
2022/03/14 03:16:37;;;;;;;6.50;4.97;;;;;;;-3.52;73.43;61645.44;5027806;28;20219;-77
2022/03/14 03:19:06;;;;;;;7.95;4.35;;;;;;;-3.54;73.00;61641.38;5037430;28;20230;-76
2022/03/14 03:21:34;;;;;;;8.70;4.80;;;;;;;-3.58;72.86;61636.81;5042845;28;20232;-78
2022/03/14 03:24:01;;;;;;;5.78;3.75;;;;;;;-3.59;72.13;61638.28;5027526;28;20476;-77
2022/03/14 03:26:28;;;;;;;6.53;4.55;;;;;;;-3.47;72.26;61645.03;5028116;28;20503;-76
2022/03/14 03:28:56;;;;;;;6.05;4.07;;;;;;;-3.54;72.84;61635.91;5035579;28;20414;-76
2022/03/14 03:31:23;;;;;;;7.28;4.82;;;;;;;-3.50;72.49;61649.94;5032912;28;20199;-76
2022/03/14 03:33:51;;;;;;;8.23;4.18;;;;;;;-3.46;71.88;61651.03;5026721;28;20225;-77
2022/03/14 03:36:18;;;;;;;8.13;4.60;;;;;;;-3.49;71.51;61647.97;5027209;28;20228;-77
2022/03/14 03:38:45;;;;;;;4.13;3.78;;;;;;;-3.44;71.16;61646.13;5024804;28;20240;-76
2022/03/14 03:41:12;;;;;;;6.35;4.15;;;;;;;-3.32;70.43;61672.78;5034668;28;20245;-77
2022/03/14 03:43:39;;;;;;;4.32;3.03;;;;;;;-3.31;69.82;61669.34;5028466;28;20214;-76
2022/03/14 03:46:07;;;;;;;5.20;3.75;;;;;;;-3.30;69.27;61664.88;5028351;28;20277;-76
2022/03/14 03:48:34;;;;;;;4.55;3.30;;;;;;;-3.23;68.58;61670.06;5027555;28;20273;-77
2022/03/14 03:51:01;;;;;;;4.25;3.80;;;;;;;-3.26;68.47;61671.47;5030955;28;20209;-77
2022/03/14 03:53:28;;;;;;;4.05;3.53;;;;;;;-3.25;68.47;61673.00;5027674;28;20227;-76
2022/03/14 03:55:55;;;;;;;5.20;3.30;;;;;;;-3.26;68.86;61664.50;5013707;28;20392;-77
2022/03/14 03:58:21;;;;;;;4.13;3.47;;;;;;;-3.31;68.92;61661.88;5026235;28;20268;-76
2022/03/14 04:00:48;;;;;;;6.95;3.65;;;;;;;-3.34;68.98;61666.28;5031853;28;20214;-76
2022/03/14 04:03:19;;;;;;;5.05;3.47;;;;;;;-3.39;69.90;61661.19;5032929;28;20238;-76
2022/03/14 04:05:46;;;;;;;5.75;3.53;;;;;;;-3.46;70.79;61654.03;5025138;28;20566;-77
2022/03/14 04:08:13;;;;;;;5.25;3.75;;;;;;;-3.49;71.33;61643.00;5025911;28;20219;-77
2022/03/14 04:10:41;;;;;;;3.53;3.20;;;;;;;-3.49;71.94;61650.97;5027414;28;20496;-78
2022/03/14 04:13:08;;;;;;;5.95;3.38;;;;;;;-3.55;71.82;61637.38;5042015;28;20289;-76
2022/03/14 04:15:40;;;;;;;4.05;3.70;;;;;;;-3.54;72.04;61643.38;5027835;28;20253;-76
2022/03/14 04:18:07;;;;;;;7.35;3.67;;;;;;;-3.48;71.43;61648.97;5025724;28;20253;-76
2022/03/14 04:20:36;;;;;;;3.70;3.40;;;;;;;-3.52;72.57;61640.44;5029776;28;20234;-75
2022/03/14 04:23:03;;;;;;;5.82;4.00;;;;;;;-3.49;72.01;61643.00;5023838;28;20245;-77
2022/03/14 04:25:30;;;;;;;8.13;3.70;;;;;;;-3.57;72.94;61640.31;5024962;28;20510;-76
2022/03/14 04:27:57;;;;;;;3.70;3.40;;;;;;;-3.56;74.12;61636.88;5025471;28;20433;-77
2022/03/14 04:30:24;;;;;;;3.85;3.28;;;;;;;-3.59;74.34;61635.78;5027432;28;20463;-77
2022/03/14 04:32:51;;;;;;;5.50;2.90;;;;;;;-3.62;74.37;61635.19;5024310;28;20223;-78
2022/03/14 04:35:18;;;;;;;4.85;3.67;;;;;;;-3.65;74.22;61625.19;5032817;28;20398;-77
2022/03/14 04:37:46;;;;;;;4.53;3.63;;;;;;;-3.79;75.00;61620.84;5034112;28;20400;-78
2022/03/14 04:40:14;;;;;;;4.65;3.97;;;;;;;-3.75;75.47;61622.44;5018740;28;20265;-77
2022/03/14 04:42:41;;;;;;;7.20;3.75;;;;;;;-3.83;76.22;61614.28;5019109;28;20290;-77
2022/03/14 04:45:09;;;;;;;5.80;3.83;;;;;;;-3.86;76.86;61615.66;5016876;28;20470;-77
2022/03/14 04:47:36;;;;;;;7.47;3.83;;;;;;;-3.84;76.76;61615.22;5023360;28;20215;-77
2022/03/14 04:50:04;;;;;;;7.63;5.18;;;;;;;-3.76;75.08;61618.94;5025186;28;20227;-77
2022/03/14 04:52:31;;;;;;;11.88;6.07;;;;;;;-3.76;74.86;61615.94;5026847;28;20219;-77
2022/03/14 04:55:00;;;;;;;13.90;7.70;;;;;;;-3.74;75.01;61620.47;5025860;28;20226;-78
2022/03/14 04:57:27;;;;;;;11.40;7.00;;;;;;;-3.74;75.32;61620.47;5028227;28;20617;-79
2022/03/14 04:59:54;;;;;;;16.90;9.15;;;;;;;-3.76;76.81;61615.94;5029139;28;20238;-77
2022/03/14 05:02:22;;;;;;;15.13;8.52;;;;;;;-3.73;77.63;61624.47;5030252;28;20219;-77
2022/03/14 05:04:50;;;;;;;15.20;8.60;;;;;;;-3.72;77.29;61625.50;5028138;28;20203;-78
2022/03/14 05:07:17;;;;;;;17.60;9.95;;;;;;;-3.67;77.26;61627.59;5025927;28;20222;-78
2022/03/14 05:09:44;;;;;;;19.50;10.57;;;;;;;-3.61;77.11;61636.72;5023061;28;20425;-77
2022/03/14 05:12:13;;;;;;;19.10;11.10;;;;;;;-3.60;77.98;61632.78;5026023;28;20214;-77
2022/03/14 05:14:40;;;;;;;20.10;11.60;;;;;;;-3.62;78.51;61630.75;5026121;28;20404;-77
2022/03/14 05:17:08;;;;;;;17.02;9.77;;;;;;;-3.55;78.71;61635.41;5023462;28;20243;-77
2022/03/14 05:19:35;;;;;;;23.25;10.38;;;;;;;-3.48;79.06;61641.53;5025451;28;20265;-78
2022/03/14 05:22:02;;;;;;;31.27;12.75;;;;;;;-3.45;80.06;61652.06;5024742;28;20218;-77
2022/03/14 05:24:30;;;;;;;29.77;14.30;;;;;;;-3.36;80.31;61659.25;5025719;28;20207;-77
2022/03/14 05:26:58;;;;;;;17.15;10.95;;;;;;;-3.31;79.61;61663.88;5017931;28;20211;-77
2022/03/14 05:29:26;;;;;;;15.07;9.52;;;;;;;-3.24;79.43;61671.00;5024263;28;20247;-78
2022/03/14 05:31:53;;;;;;;16.38;10.20;;;;;;;-3.17;78.03;61683.13;5024625;28;20222;-77
2022/03/14 05:34:20;;;;;;;18.75;9.65;;;;;;;-3.15;78.30;61685.19;5024430;28;20199;-75
2022/03/14 05:36:47;;;;;;;17.73;7.90;;;;;;;-3.03;78.23;61685.50;5032471;28;20211;-77
2022/03/14 05:39:13;;;;;;;19.85;9.77;;;;;;;-2.96;77.53;61697.13;5034209;28;20284;-78
2022/03/14 05:41:40;;;;;;;18.50;9.43;;;;;;;-2.93;77.44;61695.72;5028474;28;20219;-77
2022/03/14 05:44:07;;;;;;;9.60;7.47;;;;;;;-2.84;77.33;61711.88;5034050;28;20230;-78
2022/03/14 05:46:36;;;;;;;28.05;12.73;;;;;;;-2.68;77.65;61723.78;5026007;28;20203;-77
2022/03/14 05:49:04;;;;;;;39.28;18.48;;;;;;;-2.56;78.07;61740.50;5025736;28;20312;-79
2022/03/14 05:51:33;;;;;;;35.78;18.85;;;;;;;-2.39;78.40;61750.91;5028011;28;20206;-77
2022/03/14 05:54:00;;;;;;;35.50;17.40;;;;;;;-2.33;78.19;61767.00;5026556;28;20388;-77
2022/03/14 05:56:27;;;;;;;34.92;19.35;;;;;;;-2.20;78.05;61779.28;5042585;28;20222;-78
2022/03/14 05:58:54;;;;;;;34.92;18.67;;;;;;;-2.19;76.98;61775.31;5029190;28;20286;-77
2022/03/14 06:01:22;;;;;;;38.58;17.10;;;;;;;-2.31;75.62;61763.06;5024107;28;20214;-76
2022/03/14 06:03:50;;;;;;;36.55;19.50;;;;;;;-2.32;75.96;61762.53;5023235;28;20202;-77
2022/03/14 06:06:18;;;;;;;41.38;21.25;;;;;;;-2.27;76.53;61770.13;5024247;28;20265;-77
2022/03/14 06:08:47;;;;;;;31.38;18.58;;;;;;;-2.36;76.91;61761.44;5022696;28;20238;-76
2022/03/14 06:11:14;;;;;;;38.25;20.55;;;;;;;-2.14;78.04;61780.44;5026724;28;20199;-77
2022/03/14 06:13:40;;;;;;;46.15;21.45;;;;;;;-2.05;77.94;61790.13;5026747;28;20217;-77
2022/03/14 06:16:07;;;;;;;47.58;21.88;;;;;;;-1.90;76.98;61809.97;5023190;28;20202;-76
2022/03/14 06:18:34;;;;;;;45.72;21.30;;;;;;;-2.05;78.24;61797.63;5024717;28;20241;-80
2022/03/14 06:21:03;;;;;;;38.70;21.92;;;;;;;-2.04;78.65;61798.13;5027965;28;20230;-81
2022/03/14 06:23:30;;;;;;;41.45;22.05;;;;;;;-1.76;78.21;61819.31;5027787;28;20277;-80
2022/03/14 06:25:57;;;;;;;38.65;21.48;;;;;;;-1.75;76.28;61820.84;5026998;28;20207;-80
2022/03/14 06:28:24;;;;;;;49.22;22.20;;;;;;;-1.66;75.75;61830.03;5028265;28;20466;-79
2022/03/14 06:30:50;;;;;;;46.53;23.58;;;;;;;-1.65;74.83;61830.53;5031599;28;20199;-80
2022/03/14 06:33:17;;;;;;;48.80;22.90;;;;;;;-1.73;75.77;61824.84;5032139;28;20215;-80
2022/03/14 06:35:44;;;;;;;42.55;21.60;;;;;;;-1.71;76.69;61824.91;5024391;28;20202;-80
2022/03/14 06:38:12;;;;;;;36.33;20.83;;;;;;;-1.55;75.49;61843.78;5028445;28;20218;-79
2022/03/14 06:40:41;;;;;;;39.85;21.17;;;;;;;-1.46;73.15;61843.00;5032170;28;20230;-80
2022/03/14 06:43:09;;;;;;;37.70;21.52;;;;;;;-1.26;72.14;61875.44;5030205;28;20238;-79
2022/03/14 06:45:38;;;;;;;36.47;19.70;;;;;;;-1.04;70.75;61887.47;5033386;28;20261;-80
2022/03/14 06:48:06;;;;;;;39.38;19.85;;;;;;;-0.92;70.33;61902.75;5031507;28;20215;-80
2022/03/14 06:50:35;;;;;;;28.58;16.17;;;;;;;-0.97;67.41;61897.13;5031558;28;20266;-81
2022/03/14 06:53:02;;;;;;;35.42;18.85;;;;;;;-0.94;66.78;61903.22;5032096;28;20213;-79
2022/03/14 06:55:31;;;;;;;32.20;17.95;;;;;;;-0.87;66.20;61907.34;5035832;28;20226;-80
2022/03/14 06:57:57;;;;;;;31.23;18.15;;;;;;;-0.77;66.16;61918.13;5030967;28;20214;-80
2022/03/14 07:00:25;;;;;;;32.20;18.35;;;;;;;-0.80;64.96;61917.53;5030243;28;20269;-77
2022/03/14 07:02:51;;;;;;;38.95;20.65;;;;;;;-0.92;63.29;61905.25;5024637;28;20595;-76
2022/03/14 07:05:20;;;;;;;28.42;16.58;;;;;;;-0.97;61.75;61902.63;5027536;28;20205;-76
2022/03/14 07:07:48;;;;;;;36.55;17.45;;;;;;;-0.87;63.11;61912.34;5027757;28;20219;-77
2022/03/14 07:10:16;;;;;;;33.42;17.33;;;;;;;-0.62;63.44;61935.47;5026801;28;20306;-77
2022/03/14 07:12:46;;;;;;;37.55;19.02;;;;;;;-0.37;62.33;61961.59;5025446;28;20474;-76
2022/03/14 07:15:14;;;;;;;41.60;19.50;;;;;;;-0.34;61.78;61964.13;5027711;28;20198;-76
2022/03/14 07:17:41;;;;;;;41.00;20.58;;;;;;;-0.33;62.54;61967.66;5025384;28;20246;-76
2022/03/14 07:20:10;;;;;;;36.38;18.73;;;;;;;-0.22;63.37;61979.44;5021949;28;20222;-76
2022/03/14 07:22:49;;;;;;;38.55;19.77;;;;;;;0.03;62.63;62002.06;5017045;28;20230;-75
2022/03/14 07:25:19;;;;;;;44.03;19.90;;;;;;;-0.01;61.77;61997.94;5024672;28;20198;-75
2022/03/14 07:27:48;;;;;;;40.53;18.15;;;;;;;0.13;61.25;62011.78;5019902;28;20400;-76
2022/03/14 07:30:15;;;;;;;43.92;20.20;;;;;;;0.24;61.21;62020.56;5024507;28;20199;-77
2022/03/14 07:32:42;;;;;;;37.20;19.83;;;;;;;0.37;61.59;62034.38;5020515;28;20225;-76
2022/03/14 07:35:10;;;;;;;39.45;18.70;;;;;;;0.42;59.61;62044.00;5027270;28;20634;-76
2022/03/14 07:37:38;;;;;;;33.85;17.20;;;;;;;0.67;59.41;62065.16;5023515;28;20260;-78
2022/03/14 07:40:07;;;;;;;32.85;17.75;;;;;;;0.64;58.16;62066.56;5024295;28;20466;-76
2022/03/14 07:42:39;;;;;;;37.83;18.73;;;;;;;0.64;57.45;62066.56;5027070;28;20265;-76
2022/03/14 07:45:09;;;;;;;36.90;19.13;;;;;;;0.66;58.41;62063.59;5026717;28;20394;-77
2022/03/14 07:47:35;;;;;;;39.75;17.63;;;;;;;0.87;57.99;62087.66;5025669;28;20214;-76
2022/03/14 07:50:04;;;;;;;32.85;18.98;;;;;;;1.10;57.42;62108.75;5026137;28;20198;-76
2022/03/14 07:52:31;;;;;;;39.77;21.67;;;;;;;1.15;56.56;62116.88;5029419;28;20797;-77
2022/03/14 08:02:18;;;;;;;40.90;22.08;;;;;;;1.74;55.17;62178.91;4902123;29;20815;-77
2022/03/14 08:04:45;;;;;;;39.40;19.77;;;;;;;1.93;54.42;62198.41;4921949;28;20238;-76
2022/03/14 08:07:12;;;;;;;43.47;19.05;;;;;;;1.98;54.18;62203.56;5008200;28;20228;-77
2022/03/14 08:09:39;;;;;;;37.33;19.10;;;;;;;2.17;54.75;62220.56;5033872;28;20199;-76
2022/03/14 08:12:08;;;;;;;36.03;19.30;;;;;;;2.32;54.80;62235.94;5032976;28;20226;-77
2022/03/14 08:14:35;;;;;;;42.97;19.25;;;;;;;2.42;52.41;62251.25;5008697;28;20196;-76
2022/03/14 08:17:03;;;;;;;36.88;20.10;;;;;;;2.19;53.19;62217.59;5007455;28;20227;-76
2022/03/14 08:19:30;;;;;;;37.13;18.42;;;;;;;2.19;52.95;62225.63;5019364;28;20206;-77
2022/03/14 08:21:57;;;;;;;35.00;18.02;;;;;;;2.31;52.57;62235.44;5026254;28;20222;-75
2022/03/14 08:24:25;;;;;;;33.70;17.05;;;;;;;2.21;52.18;62222.66;5025198;28;20203;-75
2022/03/14 08:26:53;;;;;;;29.33;15.77;;;;;;;2.22;52.31;62228.19;5022723;28;20230;-76
2022/03/14 08:29:20;;;;;;;27.90;15.45;;;;;;;2.35;51.33;62241.53;5010923;28;20217;-76
2022/03/14 08:31:47;;;;;;;18.20;10.98;;;;;;;2.63;50.82;62262.25;5024797;28;20336;-75
2022/03/14 08:34:15;;;;;;;28.08;13.35;;;;;;;2.57;50.34;62261.63;5018186;28;20227;-76
2022/03/14 08:36:42;;;;;;;12.32;9.70;;;;;;;2.52;49.80;62256.47;5024616;28;20218;-75
2022/03/14 08:39:10;;;;;;;12.65;7.90;;;;;;;2.65;48.52;62269.84;5024990;28;20371;-75
2022/03/14 08:41:37;;;;;;;10.30;6.57;;;;;;;2.88;48.14;62293.47;5023162;28;20256;-76
2022/03/14 08:44:05;;;;;;;15.18;6.75;;;;;;;2.94;48.21;62299.13;5022949;28;20245;-75
2022/03/14 08:46:32;;;;;;;7.18;6.45;;;;;;;3.12;47.57;62315.13;5025068;28;20205;-74
2022/03/14 08:48:59;;;;;;;10.40;6.85;;;;;;;3.20;46.75;62325.84;5025480;28;20210;-74
2022/03/14 08:51:27;;;;;;;10.48;7.22;;;;;;;3.43;46.46;62349.50;5023442;28;20424;-74
2022/03/14 08:53:54;;;;;;;11.65;7.05;;;;;;;3.36;46.58;62345.34;5023470;28;20226;-74
2022/03/14 08:56:22;;;;;;;11.57;7.10;;;;;;;3.33;46.41;62341.75;5024123;28;20195;-74
2022/03/14 08:58:49;;;;;;;17.75;7.85;;;;;;;3.56;47.39;62362.84;5024380;28;20206;-74
2022/03/14 09:01:16;;;;;;;13.55;7.85;;;;;;;3.71;48.00;62377.78;5021589;28;20234;-75
2022/03/14 09:03:43;;;;;;;13.90;8.68;;;;;;;3.90;46.09;62397.31;5017995;28;20233;-74
2022/03/14 09:06:10;;;;;;;14.00;8.60;;;;;;;4.17;46.07;62428.13;5013182;28;20195;-74
2022/03/14 09:08:39;;;;;;;11.32;7.60;;;;;;;4.42;46.32;62450.81;5025880;28;20222;-74
2022/03/14 09:11:06;;;;;;;10.23;7.38;;;;;;;4.63;43.93;62475.47;5024505;28;20229;-74
2022/03/14 09:13:33;;;;;;;11.02;7.30;;;;;;;4.81;44.56;62492.97;5025449;28;20223;-74
2022/03/14 09:15:59;;;;;;;14.57;8.52;;;;;;;4.61;45.41;62473.41;5025720;28;20199;-74
2022/03/14 09:18:30;;;;;;;10.60;7.70;;;;;;;4.71;43.77;62483.19;5023159;28;20281;-74
2022/03/14 09:20:56;;;;;;;11.13;7.28;;;;;;;4.82;44.36;62493.97;5026123;28;20660;-74
2022/03/14 09:23:26;;;;;;;8.20;4.90;;;;;;;4.96;41.93;62503.34;5024668;28;20215;-74
2022/03/14 09:25:57;;;;;;;10.60;6.22;;;;;;;5.11;42.76;62523.88;5022005;28;20271;-74
2022/03/14 09:28:25;;;;;;;6.75;5.20;;;;;;;5.12;41.65;62525.41;5016649;28;20219;-73
2022/03/14 09:30:52;;;;;;;7.65;5.13;;;;;;;5.10;43.09;62523.34;5023754;28;20467;-75
2022/03/14 09:33:19;;;;;;;4.80;4.40;;;;;;;5.21;45.81;62534.66;5024441;28;20540;-74
2022/03/14 09:35:46;;;;;;;5.18;3.70;;;;;;;5.20;42.97;62531.13;5022552;28;20277;-73
2022/03/14 09:38:15;;;;;;;4.35;3.72;;;;;;;5.22;42.64;62535.19;5023911;28;20214;-74
2022/03/14 09:40:44;;;;;;;4.00;3.63;;;;;;;5.26;44.50;62536.78;5025801;28;20254;-74
2022/03/14 09:43:15;;;;;;;4.50;3.90;;;;;;;5.32;42.68;62543.47;5023797;28;20218;-73
2022/03/14 09:45:47;;;;;;;8.55;4.82;;;;;;;5.33;42.25;62547.03;5021454;28;20241;-75
2022/03/14 09:48:15;;;;;;;5.75;4.78;;;;;;;5.29;40.92;62542.38;5023792;28;20253;-74
2022/03/14 09:50:45;;;;;;;3.63;3.05;;;;;;;5.27;43.90;62543.38;5023556;28;20190;-73
2022/03/14 09:53:14;;;;;;;5.18;3.17;;;;;;;5.27;43.01;62542.84;5022196;28;20508;-75
2022/03/14 09:55:44;;;;;;;5.07;3.60;;;;;;;5.20;41.11;62528.06;5023643;28;20273;-75
2022/03/14 09:58:14;;;;;;;5.28;4.10;;;;;;;5.23;41.62;62538.75;5021868;28;20241;-75
2022/03/14 10:00:42;;;;;;;4.10;3.70;;;;;;;5.33;42.36;62544.50;5017962;28;20238;-76
2022/03/14 10:03:09;;;;;;;4.53;3.30;;;;;;;5.27;39.85;62540.31;5010921;28;20230;-75
2022/03/14 10:05:36;;;;;;;3.72;3.40;;;;;;;5.07;42.33;62520.25;5023349;28;20198;-75
2022/03/14 10:08:03;;;;;;;4.85;3.88;;;;;;;5.15;41.17;62525.44;5021894;28;20361;-75
2022/03/14 10:10:31;;;;;;;4.40;3.65;;;;;;;5.09;42.32;62519.78;5023622;28;20198;-75
2022/03/14 10:12:58;;;;;;;4.57;3.05;;;;;;;5.21;44.25;62531.63;5025054;28;20230;-75
2022/03/14 10:15:28;;;;;;;3.97;3.67;;;;;;;5.20;40.58;62533.63;5027877;28;20198;-74
2022/03/14 10:17:57;;;;;;;6.15;3.40;;;;;;;4.85;39.93;62492.03;5025196;28;20229;-75
2022/03/14 10:20:25;;;;;;;4.32;3.35;;;;;;;5.01;41.40;62511.56;5027847;28;20208;-75
2022/03/14 10:22:58;;;;;;;3.25;3.03;;;;;;;5.11;39.52;62526.88;5028675;28;20226;-75
2022/03/14 10:25:25;;;;;;;4.40;3.42;;;;;;;5.17;39.06;62530.56;5018745;28;20230;-75
2022/03/14 10:27:55;;;;;;;5.22;3.65;;;;;;;5.26;39.62;62541.84;5025529;28;20226;-76
2022/03/14 10:30:24;;;;;;;4.18;3.78;;;;;;;5.19;39.79;62537.66;5026578;28;20468;-74
2022/03/14 10:33:01;;;;;;;4.50;3.80;;;;;;;5.42;39.70;62548.72;5026129;28;20253;-76
2022/03/14 10:35:32;;;;;;;4.40;3.47;;;;;;;5.66;41.20;62580.53;5026657;28;20217;-77
2022/03/14 10:38:03;;;;;;;6.28;3.67;;;;;;;5.86;41.78;62596.09;5028421;28;20218;-75
2022/03/14 10:40:32;;;;;;;3.38;3.08;;;;;;;6.00;41.20;62615.56;5033355;28;20252;-74
2022/03/14 10:43:00;;;;;;;4.28;3.88;;;;;;;6.10;41.38;62625.34;5039621;28;20207;-74
2022/03/14 10:45:27;;;;;;;4.35;3.20;;;;;;;6.07;38.60;62617.22;5028413;28;20233;-75
2022/03/14 10:47:58;;;;;;;4.15;3.65;;;;;;;5.70;37.41;62584.63;5028219;28;20242;-74
2022/03/14 10:50:34;;;;;;;3.47;3.15;;;;;;;5.61;38.57;62573.34;5027745;28;20253;-75
2022/03/14 10:53:07;;;;;;;4.20;3.75;;;;;;;5.29;38.53;62539.88;5027222;28;20233;-75
2022/03/14 10:55:36;;;;;;;5.57;3.63;;;;;;;5.18;40.57;62531.56;5026421;28;20375;-75
2022/03/14 10:58:12;;;;;;;4.00;3.58;;;;;;;5.33;38.93;62549.03;5028307;28;20281;-76
2022/03/14 11:01:01;;;;;;;4.57;3.90;;;;;;;5.62;39.77;62576.91;5027635;28;20230;-75
2022/03/14 11:03:30;;;;;;;4.10;3.60;;;;;;;5.77;41.16;62591.84;5021103;28;20519;-76
2022/03/14 11:06:00;;;;;;;4.95;3.58;;;;;;;5.75;40.84;62592.31;5027614;28;20450;-76
2022/03/14 11:08:35;;;;;;;9.18;4.82;;;;;;;6.03;41.27;62621.19;5027178;28;20218;-75
2022/03/14 11:11:04;;;;;;;4.65;4.15;;;;;;;6.14;39.00;62626.97;5024108;28;20206;-75
2022/03/14 11:13:31;;;;;;;6.97;4.00;;;;;;;6.03;39.75;62615.59;5026342;28;20219;-76
2022/03/14 11:15:58;;;;;;;4.28;3.88;;;;;;;5.96;37.90;62610.91;5028000;28;20206;-75
2022/03/14 11:18:26;;;;;;;3.80;3.45;;;;;;;6.19;38.42;62635.16;5026859;28;20214;-76
2022/03/14 11:20:57;;;;;;;4.80;3.72;;;;;;;6.06;37.73;62618.72;5026251;28;20237;-75
2022/03/14 11:23:25;;;;;;;5.22;4.40;;;;;;;5.84;38.47;62597.06;5030282;28;20233;-76
2022/03/14 11:25:56;;;;;;;5.15;4.32;;;;;;;6.06;42.18;62624.28;5033198;28;20214;-76
2022/03/14 11:28:24;;;;;;;3.83;3.53;;;;;;;6.12;40.16;62627.41;5031154;28;20237;-76
2022/03/14 11:30:58;;;;;;;4.45;3.60;;;;;;;6.29;41.80;62642.94;5029499;28;20449;-76
2022/03/14 11:33:25;;;;;;;6.53;3.83;;;;;;;6.29;42.41;62647.47;5027996;28;20225;-77
2022/03/14 11:35:54;;;;;;;5.15;4.25;;;;;;;6.44;40.96;62657.88;5025748;28;20194;-76
2022/03/14 11:38:21;;;;;;;10.00;4.15;;;;;;;6.56;40.92;62670.75;5026893;28;20276;-76
2022/03/14 11:40:51;;;;;;;4.82;3.78;;;;;;;6.49;41.99;62666.06;5015771;28;20234;-76
2022/03/14 11:43:18;;;;;;;4.63;4.20;;;;;;;6.62;40.41;62678.97;5026403;28;20215;-75